createdAt,value
2017-07-19T00:00:36.602Z,0
2017-07-19T00:01:17.485Z,0
2017-07-19T00:01:58.374Z,0
2017-07-19T00:02:39.266Z,0
2017-07-19T00:03:20.156Z,0
2017-07-19T00:04:01.044Z,0
2017-07-19T00:04:41.934Z,0
2017-07-19T00:05:22.830Z,0
2017-07-19T00:06:03.723Z,0
2017-07-19T00:06:44.628Z,0
2017-07-19T00:07:25.515Z,0
2017-07-19T00:08:06.400Z,0
2017-07-19T00:08:47.303Z,0
2017-07-19T00:09:28.189Z,0
2017-07-19T00:10:09.078Z,0
2017-07-19T00:10:49.986Z,0
2017-07-19T00:11:30.872Z,0
2017-07-19T00:12:11.756Z,0
2017-07-19T00:12:52.641Z,0
2017-07-19T00:13:33.533Z,0
2017-07-19T00:14:14.435Z,0
2017-07-19T00:14:55.321Z,0
2017-07-19T00:15:36.218Z,0
2017-07-19T00:16:17.112Z,0
2017-07-19T00:16:57.996Z,0
2017-07-19T00:17:38.894Z,0
2017-07-19T00:18:19.782Z,0
2017-07-19T00:19:00.670Z,0
2017-07-19T00:19:41.554Z,0
2017-07-19T00:20:22.442Z,0
2017-07-19T00:21:03.349Z,0
2017-07-19T00:21:44.237Z,0
2017-07-19T00:22:25.141Z,0
2017-07-19T00:24:03.544Z,0
2017-07-19T00:24:44.427Z,0
2017-07-19T00:25:25.307Z,0
2017-07-19T00:26:06.205Z,0
2017-07-19T00:26:47.101Z,0
2017-07-19T00:27:27.985Z,0
2017-07-19T00:28:08.874Z,0
2017-07-19T00:28:49.776Z,0
2017-07-19T00:29:30.663Z,0
2017-07-19T00:30:11.555Z,0
2017-07-19T00:30:52.453Z,0
2017-07-19T00:31:33.358Z,0
2017-07-19T00:32:14.236Z,0
2017-07-19T00:32:55.141Z,0
2017-07-19T00:33:36.027Z,0
2017-07-19T00:34:16.917Z,0
2017-07-19T00:34:57.821Z,0
2017-07-19T00:35:38.704Z,0
2017-07-19T00:36:19.601Z,0
2017-07-19T00:37:00.491Z,0
2017-07-19T00:37:41.380Z,0
2017-07-19T00:38:22.268Z,0
2017-07-19T00:39:03.161Z,0
2017-07-19T00:39:44.058Z,0
2017-07-19T00:40:24.951Z,0
2017-07-19T00:41:05.837Z,0
2017-07-19T00:41:46.736Z,0
2017-07-19T00:42:27.612Z,0
2017-07-19T00:43:08.498Z,0
2017-07-19T00:43:49.391Z,0
2017-07-19T00:44:30.296Z,0
2017-07-19T00:45:11.177Z,0
2017-07-19T00:45:52.085Z,0
2017-07-19T00:46:32.968Z,0
2017-07-19T00:47:13.868Z,0
2017-07-19T00:47:54.760Z,0
2017-07-19T00:48:35.653Z,0
2017-07-19T00:49:16.555Z,0
2017-07-19T00:49:57.444Z,0
2017-07-19T00:50:38.332Z,0
2017-07-19T00:51:19.232Z,0
2017-07-19T00:52:00.113Z,0
2017-07-19T00:52:41.008Z,0
2017-07-19T00:53:21.894Z,0
2017-07-19T00:54:02.791Z,0
2017-07-19T00:54:43.676Z,0
2017-07-19T00:55:24.564Z,0
2017-07-19T00:56:05.464Z,0
2017-07-19T00:56:46.342Z,0
2017-07-19T00:57:27.229Z,0
2017-07-19T00:58:08.123Z,0
2017-07-19T00:58:49.019Z,0
2017-07-19T00:59:29.913Z,0
2017-07-19T01:00:10.846Z,0
2017-07-19T01:00:51.731Z,0
2017-07-19T01:01:32.633Z,0
2017-07-19T01:02:13.522Z,0
2017-07-19T01:02:54.407Z,0
2017-07-19T01:03:35.312Z,0
2017-07-19T01:04:16.217Z,0
2017-07-19T01:04:57.131Z,0
2017-07-19T01:05:38.009Z,0
2017-07-19T01:06:18.891Z,0
2017-07-19T01:06:59.788Z,0
2017-07-19T01:07:40.678Z,0
2017-07-19T01:08:21.568Z,0
2017-07-19T01:09:02.464Z,0
2017-07-19T01:09:43.352Z,0
2017-07-19T01:10:24.242Z,0
2017-07-19T01:11:05.133Z,0
2017-07-19T01:11:46.021Z,0
2017-07-19T01:12:26.908Z,0
2017-07-19T01:13:07.794Z,0
2017-07-19T01:13:48.690Z,0
2017-07-19T01:14:29.574Z,0
2017-07-19T01:15:10.470Z,0
2017-07-19T01:15:51.360Z,0
2017-07-19T01:16:32.249Z,0
2017-07-19T01:17:13.138Z,0
2017-07-19T01:17:54.041Z,0
2017-07-19T01:18:34.921Z,0
2017-07-19T01:19:15.811Z,0
2017-07-19T01:19:56.704Z,0
2017-07-19T01:20:37.607Z,0
2017-07-19T01:21:18.491Z,0
2017-07-19T01:21:59.405Z,0
2017-07-19T01:22:40.291Z,0
2017-07-19T01:23:21.174Z,0
2017-07-19T01:24:02.084Z,0
2017-07-19T01:24:42.957Z,0
2017-07-19T01:25:23.842Z,0
2017-07-19T01:26:04.728Z,0
2017-07-19T01:26:45.611Z,0
2017-07-19T01:27:26.493Z,0
2017-07-19T01:28:07.379Z,0
2017-07-19T01:28:48.279Z,0
2017-07-19T01:29:29.168Z,0
2017-07-19T01:30:10.048Z,0
2017-07-19T01:30:50.935Z,0
2017-07-19T01:31:31.824Z,0
2017-07-19T01:32:12.721Z,0
2017-07-19T01:32:53.589Z,0
2017-07-19T01:33:34.480Z,0
2017-07-19T01:34:15.363Z,0
2017-07-19T01:34:56.238Z,0
2017-07-19T01:35:37.126Z,0
2017-07-19T01:36:18.018Z,0
2017-07-19T01:36:58.911Z,0
2017-07-19T01:37:39.779Z,0
2017-07-19T01:38:20.703Z,0
2017-07-19T01:39:01.588Z,0
2017-07-19T01:39:42.477Z,0
2017-07-19T01:40:23.379Z,0
2017-07-19T01:41:04.257Z,0
2017-07-19T01:41:45.162Z,0
2017-07-19T01:42:26.046Z,0
2017-07-19T01:43:06.935Z,0
2017-07-19T01:43:47.831Z,0
2017-07-19T01:44:28.720Z,0
2017-07-19T01:45:09.611Z,0
2017-07-19T01:45:50.498Z,0
2017-07-19T01:46:31.412Z,0
2017-07-19T01:47:12.294Z,0
2017-07-19T01:47:53.183Z,0
2017-07-19T01:48:34.073Z,0
2017-07-19T01:49:14.967Z,0
2017-07-19T01:49:55.871Z,0
2017-07-19T01:50:36.769Z,0
2017-07-19T01:51:17.643Z,0
2017-07-19T01:51:58.534Z,0
2017-07-19T01:52:39.425Z,0
2017-07-19T01:53:20.317Z,0
2017-07-19T01:54:01.219Z,0
2017-07-19T01:54:42.100Z,0
2017-07-19T01:55:22.995Z,0
2017-07-19T01:56:03.890Z,0
2017-07-19T01:56:44.771Z,0
2017-07-19T01:57:25.667Z,0
2017-07-19T01:58:06.547Z,0
2017-07-19T01:58:47.436Z,0
2017-07-19T01:59:28.331Z,0
2017-07-19T02:00:09.226Z,0
2017-07-19T02:00:50.113Z,0
2017-07-19T02:01:30.999Z,0
2017-07-19T02:02:11.892Z,0
2017-07-19T02:02:52.784Z,0
2017-07-19T02:03:33.670Z,0
2017-07-19T02:04:14.559Z,0
2017-07-19T02:04:55.451Z,0
2017-07-19T02:05:36.357Z,0
2017-07-19T02:06:17.243Z,0
2017-07-19T02:06:58.130Z,0
2017-07-19T02:07:39.025Z,0
2017-07-19T02:08:19.911Z,0
2017-07-19T02:09:00.789Z,0
2017-07-19T02:09:41.675Z,0
2017-07-19T02:10:22.568Z,0
2017-07-19T02:11:03.448Z,0
2017-07-19T02:11:44.339Z,0
2017-07-19T02:12:25.238Z,0
2017-07-19T02:13:06.122Z,0
2017-07-19T02:13:47.012Z,0
2017-07-19T02:14:27.904Z,0
2017-07-19T02:15:08.799Z,0
2017-07-19T02:15:49.686Z,0
2017-07-19T02:16:30.574Z,0
2017-07-19T02:17:11.465Z,0
2017-07-19T02:17:52.356Z,0
2017-07-19T02:18:33.246Z,0
2017-07-19T02:19:14.132Z,0
2017-07-19T02:19:55.029Z,0
2017-07-19T02:20:35.918Z,0
2017-07-19T02:21:16.803Z,0
2017-07-19T02:21:57.685Z,0
2017-07-19T02:22:38.581Z,0
2017-07-19T02:23:19.473Z,4
2017-07-19T02:24:00.364Z,4
2017-07-19T02:24:41.255Z,4
2017-07-19T02:25:22.169Z,4
2017-07-19T02:26:03.035Z,4
2017-07-19T02:26:43.932Z,4
2017-07-19T02:27:24.825Z,0
2017-07-19T02:28:05.717Z,0
2017-07-19T02:28:46.608Z,4
2017-07-19T02:29:27.497Z,4
2017-07-19T02:30:08.384Z,4
2017-07-19T02:30:49.282Z,4
2017-07-19T02:31:30.169Z,4
2017-07-19T02:32:11.045Z,4
2017-07-19T02:32:51.936Z,4
2017-07-19T02:33:32.831Z,4
2017-07-19T02:34:13.726Z,4
2017-07-19T02:34:54.613Z,8
2017-07-19T02:35:35.503Z,4
2017-07-19T02:36:16.411Z,8
2017-07-19T02:36:57.318Z,8
2017-07-19T02:37:38.218Z,8
2017-07-19T02:38:19.102Z,8
2017-07-19T02:38:59.983Z,8
2017-07-19T02:39:40.870Z,8
2017-07-19T02:40:21.763Z,8
2017-07-19T02:41:02.652Z,12
2017-07-19T02:41:43.556Z,12
2017-07-19T02:42:24.437Z,16
2017-07-19T02:43:05.331Z,16
2017-07-19T02:43:46.208Z,12
2017-07-19T02:44:27.106Z,20
2017-07-19T02:45:07.990Z,20
2017-07-19T02:45:48.885Z,20
2017-07-19T02:46:29.774Z,20
2017-07-19T02:47:10.662Z,24
2017-07-19T02:47:51.552Z,24
2017-07-19T02:48:32.457Z,28
2017-07-19T02:49:13.341Z,32
2017-07-19T02:49:54.228Z,32
2017-07-19T02:50:35.145Z,36
2017-07-19T02:51:16.036Z,36
2017-07-19T02:51:56.927Z,40
2017-07-19T02:52:37.811Z,262140
2017-07-19T02:53:18.702Z,262140
2017-07-19T02:53:59.592Z,262140
2017-07-19T02:54:40.477Z,262140
2017-07-19T02:55:21.360Z,262140
2017-07-19T02:56:02.251Z,262140
2017-07-19T02:56:43.142Z,262140
2017-07-19T02:57:24.021Z,262140
2017-07-19T02:58:04.908Z,262140
2017-07-19T02:58:45.801Z,262140
2017-07-19T02:59:26.692Z,262140
2017-07-19T03:00:07.577Z,262140
2017-07-19T03:00:48.467Z,262140
2017-07-19T03:01:29.362Z,262140
2017-07-19T03:02:10.243Z,262140
2017-07-19T03:02:51.142Z,262140
2017-07-19T03:03:32.043Z,262140
2017-07-19T03:04:12.930Z,262140
2017-07-19T03:04:53.905Z,262140
2017-07-19T03:06:32.318Z,262140
2017-07-19T03:07:13.209Z,262140
2017-07-19T03:07:54.098Z,262140
2017-07-19T03:08:34.995Z,262140
2017-07-19T03:09:15.879Z,262140
2017-07-19T03:09:56.771Z,262140
2017-07-19T03:10:37.669Z,262140
2017-07-19T03:11:18.581Z,262140
2017-07-19T03:11:59.475Z,216
2017-07-19T03:12:40.364Z,228
2017-07-19T03:13:21.258Z,236
2017-07-19T03:14:02.150Z,244
2017-07-19T03:14:43.041Z,260
2017-07-19T03:15:23.950Z,272
2017-07-19T03:16:04.818Z,284
2017-07-19T03:16:45.715Z,292
2017-07-19T03:17:26.630Z,308
2017-07-19T03:18:07.491Z,320
2017-07-19T03:18:48.390Z,332
2017-07-19T03:19:29.274Z,344
2017-07-19T03:20:10.161Z,360
2017-07-19T03:20:51.053Z,372
2017-07-19T03:21:31.938Z,384
2017-07-19T03:22:12.825Z,400
2017-07-19T03:22:53.700Z,416
2017-07-19T03:23:34.595Z,428
2017-07-19T03:24:15.498Z,444
2017-07-19T03:24:56.371Z,460
2017-07-19T03:25:37.262Z,472
2017-07-19T03:26:18.171Z,488
2017-07-19T03:26:59.059Z,504
2017-07-19T03:27:39.942Z,520
2017-07-19T03:28:20.824Z,536
2017-07-19T03:29:01.732Z,552
2017-07-19T03:29:42.635Z,568
2017-07-19T03:30:23.524Z,584
2017-07-19T03:31:04.402Z,600
2017-07-19T03:31:45.301Z,616
2017-07-19T03:32:26.185Z,636
2017-07-19T03:33:07.064Z,652
2017-07-19T03:33:47.938Z,668
2017-07-19T03:34:28.845Z,692
2017-07-19T03:35:09.719Z,708
2017-07-19T03:35:50.593Z,724
2017-07-19T03:36:31.471Z,744
2017-07-19T03:37:12.410Z,764
2017-07-19T03:37:53.290Z,780
2017-07-19T03:38:34.165Z,804
2017-07-19T03:39:15.061Z,820
2017-07-19T03:39:55.944Z,840
2017-07-19T03:40:36.825Z,864
2017-07-19T03:41:17.711Z,880
2017-07-19T03:41:58.627Z,896
2017-07-19T03:42:39.557Z,908
2017-07-19T03:43:20.450Z,924
2017-07-19T03:44:01.338Z,944
2017-07-19T03:44:42.233Z,964
2017-07-19T03:45:23.117Z,980
2017-07-19T03:46:04.016Z,1000
2017-07-19T03:46:44.904Z,1016
2017-07-19T03:47:25.792Z,1040
2017-07-19T03:48:06.677Z,1056
2017-07-19T03:48:47.571Z,1076
2017-07-19T03:49:28.471Z,1100
2017-07-19T03:50:09.362Z,1120
2017-07-19T03:50:50.267Z,1140
2017-07-19T03:51:31.149Z,1164
2017-07-19T03:52:12.029Z,1184
2017-07-19T03:52:52.914Z,1200
2017-07-19T03:53:33.807Z,1220
2017-07-19T03:54:14.679Z,1240
2017-07-19T03:54:55.560Z,1256
2017-07-19T03:55:36.450Z,1280
2017-07-19T03:56:17.347Z,1296
2017-07-19T03:56:58.237Z,1320
2017-07-19T03:57:39.125Z,1336
2017-07-19T03:58:20.010Z,1360
2017-07-19T03:59:00.896Z,1376
2017-07-19T03:59:41.770Z,1392
2017-07-19T04:00:22.658Z,1412
2017-07-19T04:01:03.543Z,1436
2017-07-19T04:01:44.438Z,1452
2017-07-19T04:02:25.345Z,1468
2017-07-19T04:03:06.235Z,1492
2017-07-19T04:03:47.104Z,1520
2017-07-19T04:04:27.978Z,1532
2017-07-19T04:05:08.872Z,1548
2017-07-19T04:05:49.800Z,1564
2017-07-19T04:06:30.641Z,1584
2017-07-19T04:07:11.511Z,1600
2017-07-19T04:07:52.405Z,1620
2017-07-19T04:08:33.295Z,1632
2017-07-19T04:09:14.192Z,1652
2017-07-19T04:09:55.125Z,1672
2017-07-19T04:10:36.010Z,1688
2017-07-19T04:11:16.918Z,1704
2017-07-19T04:11:57.812Z,1724
2017-07-19T04:12:38.694Z,1744
2017-07-19T04:13:19.586Z,1764
2017-07-19T04:14:00.474Z,1780
2017-07-19T04:14:41.365Z,1800
2017-07-19T04:15:22.256Z,1824
2017-07-19T04:16:03.151Z,1840
2017-07-19T04:16:44.047Z,1860
2017-07-19T04:17:24.938Z,1876
2017-07-19T04:18:05.828Z,1896
2017-07-19T04:18:46.720Z,1916
2017-07-19T04:19:27.625Z,1936
2017-07-19T04:20:08.509Z,1948
2017-07-19T04:20:49.405Z,1964
2017-07-19T04:21:30.306Z,1980
2017-07-19T04:22:11.192Z,1992
2017-07-19T04:22:52.077Z,2004
2017-07-19T04:23:32.961Z,2008
2017-07-19T04:24:13.853Z,2020
2017-07-19T04:24:54.736Z,2032
2017-07-19T04:25:35.676Z,2044
2017-07-19T04:26:16.562Z,2064
2017-07-19T04:26:57.448Z,2068
2017-07-19T04:27:38.342Z,2076
2017-07-19T04:28:19.222Z,2092
2017-07-19T04:29:00.115Z,2108
2017-07-19T04:29:41.022Z,2132
2017-07-19T04:30:21.902Z,2168
2017-07-19T04:31:02.798Z,2200
2017-07-19T04:31:43.687Z,2232
2017-07-19T04:32:24.575Z,2268
2017-07-19T04:33:05.458Z,2304
2017-07-19T04:33:46.363Z,2344
2017-07-19T04:34:27.253Z,2372
2017-07-19T04:35:08.117Z,2408
2017-07-19T04:35:49.025Z,2428
2017-07-19T04:36:29.905Z,2460
2017-07-19T04:37:10.817Z,2480
2017-07-19T04:37:51.701Z,2500
2017-07-19T04:38:32.589Z,2496
2017-07-19T04:39:13.466Z,2508
2017-07-19T04:39:54.351Z,2500
2017-07-19T04:40:35.240Z,2520
2017-07-19T04:41:16.125Z,2528
2017-07-19T04:41:57.029Z,2532
2017-07-19T04:42:37.923Z,2528
2017-07-19T04:43:18.815Z,2528
2017-07-19T04:43:59.700Z,2528
2017-07-19T04:44:40.618Z,2520
2017-07-19T04:45:21.507Z,2524
2017-07-19T04:46:02.428Z,2524
2017-07-19T04:46:43.307Z,2536
2017-07-19T04:47:24.201Z,2544
2017-07-19T04:48:05.095Z,2552
2017-07-19T04:48:45.987Z,2560
2017-07-19T04:49:26.889Z,2588
2017-07-19T04:50:07.779Z,2596
2017-07-19T04:50:48.659Z,2604
2017-07-19T04:51:29.536Z,2612
2017-07-19T04:52:10.443Z,2628
2017-07-19T04:52:51.318Z,2644
2017-07-19T04:53:32.196Z,2656
2017-07-19T04:54:13.077Z,2664
2017-07-19T04:54:53.972Z,2676
2017-07-19T04:55:34.857Z,2692
2017-07-19T04:56:15.738Z,2708
2017-07-19T04:56:56.625Z,2724
2017-07-19T04:57:37.517Z,2740
2017-07-19T04:58:18.406Z,2760
2017-07-19T04:58:59.294Z,2776
2017-07-19T04:59:40.187Z,2772
2017-07-19T05:00:21.083Z,2816
2017-07-19T05:01:01.975Z,2832
2017-07-19T05:01:42.878Z,2836
2017-07-19T05:02:23.764Z,2868
2017-07-19T05:03:04.681Z,2876
2017-07-19T05:03:45.568Z,2884
2017-07-19T05:04:26.458Z,2904
2017-07-19T05:05:07.362Z,2928
2017-07-19T05:05:48.247Z,2944
2017-07-19T05:06:29.130Z,2968
2017-07-19T05:07:10.038Z,2976
2017-07-19T05:07:50.916Z,2996
2017-07-19T05:08:31.808Z,3012
2017-07-19T05:09:12.714Z,3032
2017-07-19T05:09:53.607Z,3056
2017-07-19T05:10:34.489Z,3080
2017-07-19T05:11:15.393Z,3096
2017-07-19T05:11:56.276Z,3104
2017-07-19T05:12:37.169Z,3116
2017-07-19T05:13:18.062Z,3140
2017-07-19T05:13:58.967Z,3172
2017-07-19T05:14:39.853Z,3188
2017-07-19T05:15:20.752Z,3212
2017-07-19T05:16:01.647Z,3244
2017-07-19T05:16:42.558Z,3260
2017-07-19T05:17:23.469Z,3284
2017-07-19T05:18:04.372Z,3304
2017-07-19T05:18:45.286Z,3320
2017-07-19T05:19:26.189Z,3340
2017-07-19T05:20:07.087Z,3356
2017-07-19T05:22:00.711Z,3432
2017-07-19T05:22:41.614Z,3444
2017-07-19T05:23:22.493Z,3480
2017-07-19T05:24:03.385Z,3480
2017-07-19T05:24:44.273Z,3500
2017-07-19T05:25:25.153Z,3508
2017-07-19T05:26:06.059Z,3520
2017-07-19T05:26:46.942Z,3564
2017-07-19T05:27:27.827Z,3560
2017-07-19T05:28:08.729Z,3580
2017-07-19T05:28:49.618Z,3600
2017-07-19T05:29:30.498Z,3604
2017-07-19T05:30:11.381Z,3628
2017-07-19T05:30:52.275Z,3660
2017-07-19T05:31:33.170Z,3680
2017-07-19T05:32:14.062Z,3704
2017-07-19T05:32:54.959Z,3728
2017-07-19T05:33:35.846Z,3748
2017-07-19T05:34:16.723Z,3784
2017-07-19T05:34:57.618Z,3804
2017-07-19T05:35:38.509Z,3824
2017-07-19T05:36:19.417Z,3852
2017-07-19T05:37:00.273Z,3872
2017-07-19T05:37:41.171Z,3904
2017-07-19T05:38:22.062Z,3928
2017-07-19T05:39:02.955Z,3952
2017-07-19T05:39:43.849Z,3980
2017-07-19T05:40:24.737Z,4004
2017-07-19T05:41:05.615Z,4048
2017-07-19T05:41:46.501Z,4084
2017-07-19T05:42:27.394Z,4116
2017-07-19T05:43:08.284Z,4140
2017-07-19T05:43:49.180Z,4164
2017-07-19T05:44:30.070Z,4204
2017-07-19T05:45:10.964Z,4240
2017-07-19T05:45:51.845Z,4264
2017-07-19T05:46:32.737Z,4304
2017-07-19T05:47:13.626Z,4356
2017-07-19T05:47:54.522Z,4344
2017-07-19T05:48:35.413Z,4384
2017-07-19T05:49:16.302Z,4416
2017-07-19T05:49:57.193Z,4456
2017-07-19T05:50:38.089Z,4496
2017-07-19T05:51:18.976Z,4524
2017-07-19T05:51:59.867Z,4552
2017-07-19T05:52:40.785Z,4580
2017-07-19T05:53:21.667Z,4616
2017-07-19T05:54:02.556Z,4656
2017-07-19T05:54:43.446Z,4704
2017-07-19T05:55:24.335Z,4736
2017-07-19T05:56:05.224Z,4772
2017-07-19T05:56:46.118Z,4808
2017-07-19T05:57:27.006Z,4860
2017-07-19T05:58:07.919Z,4932
2017-07-19T05:58:48.801Z,4968
2017-07-19T05:59:29.685Z,5092
2017-07-19T06:00:10.581Z,5148
2017-07-19T06:00:51.473Z,5240
2017-07-19T06:01:32.357Z,5332
2017-07-19T06:02:13.239Z,5396
2017-07-19T06:02:54.129Z,5484
2017-07-19T06:03:35.035Z,5600
2017-07-19T06:04:15.933Z,5736
2017-07-19T06:04:56.827Z,5840
2017-07-19T06:05:37.712Z,5952
2017-07-19T06:06:18.603Z,6032
2017-07-19T06:06:59.497Z,6140
2017-07-19T06:07:40.385Z,6228
2017-07-19T06:08:21.289Z,6396
2017-07-19T06:09:02.195Z,6604
2017-07-19T06:09:43.077Z,6764
2017-07-19T06:10:23.975Z,6852
2017-07-19T06:11:04.858Z,7024
2017-07-19T06:11:45.740Z,7144
2017-07-19T06:12:26.650Z,7280
2017-07-19T06:13:07.539Z,7412
2017-07-19T06:13:48.447Z,7544
2017-07-19T06:14:29.349Z,7608
2017-07-19T06:15:10.236Z,7788
2017-07-19T06:15:51.124Z,7972
2017-07-19T06:16:32.020Z,8132
2017-07-19T06:17:12.926Z,8248
2017-07-19T06:17:53.808Z,8464
2017-07-19T06:18:34.701Z,8636
2017-07-19T06:19:15.591Z,8872
2017-07-19T06:19:56.475Z,9072
2017-07-19T06:20:37.373Z,9228
2017-07-19T06:21:18.264Z,9348
2017-07-19T06:21:59.157Z,9484
2017-07-19T06:22:40.067Z,9580
2017-07-19T06:23:20.951Z,9724
2017-07-19T06:24:01.842Z,9712
2017-07-19T06:24:42.737Z,10036
2017-07-19T06:25:23.619Z,10200
2017-07-19T06:26:04.511Z,10340
2017-07-19T06:26:45.414Z,10476
2017-07-19T06:27:26.297Z,10560
2017-07-19T06:28:07.186Z,10620
2017-07-19T06:28:48.074Z,10680
2017-07-19T06:29:28.964Z,10756
2017-07-19T06:30:09.850Z,10800
2017-07-19T06:30:50.761Z,10856
2017-07-19T06:31:31.642Z,10892
2017-07-19T06:32:12.537Z,10924
2017-07-19T06:32:53.437Z,10960
2017-07-19T06:33:34.356Z,10984
2017-07-19T06:34:15.260Z,11016
2017-07-19T06:34:56.145Z,11044
2017-07-19T06:35:37.053Z,11080
2017-07-19T06:36:17.950Z,11068
2017-07-19T06:36:58.841Z,11080
2017-07-19T06:37:39.752Z,11120
2017-07-19T06:38:20.649Z,11148
2017-07-19T06:39:01.547Z,11172
2017-07-19T06:39:42.447Z,11180
2017-07-19T06:40:23.350Z,11224
2017-07-19T06:41:04.263Z,11216
2017-07-19T06:41:45.153Z,11248
2017-07-19T06:42:26.069Z,11252
2017-07-19T06:43:06.968Z,11260
2017-07-19T06:43:47.875Z,11260
2017-07-19T06:44:28.768Z,11272
2017-07-19T06:45:09.718Z,11340
2017-07-19T06:45:50.618Z,11332
2017-07-19T06:46:31.532Z,11332
2017-07-19T06:47:12.411Z,11304
2017-07-19T06:47:53.308Z,11320
2017-07-19T06:48:34.213Z,11340
2017-07-19T06:49:15.115Z,11376
2017-07-19T06:49:56.016Z,11364
2017-07-19T06:50:36.918Z,11388
2017-07-19T06:51:17.822Z,11408
2017-07-19T06:51:58.711Z,11420
2017-07-19T06:52:39.640Z,11432
2017-07-19T06:53:20.517Z,11436
2017-07-19T06:54:01.416Z,11444
2017-07-19T06:54:42.314Z,11456
2017-07-19T06:55:23.216Z,11468
2017-07-19T06:56:04.116Z,11472
2017-07-19T06:56:45.019Z,11456
2017-07-19T06:57:25.940Z,11440
2017-07-19T06:58:06.964Z,11472
2017-07-19T06:58:47.870Z,11488
2017-07-19T06:59:28.791Z,11536
2017-07-19T07:00:09.703Z,11540
2017-07-19T07:00:50.613Z,11572
2017-07-19T07:01:31.525Z,11608
2017-07-19T07:02:12.427Z,11628
2017-07-19T07:02:53.331Z,11636
2017-07-19T07:03:34.231Z,11648
2017-07-19T07:04:15.141Z,11652
2017-07-19T07:04:56.057Z,11688
2017-07-19T07:05:36.965Z,11700
2017-07-19T07:06:17.863Z,11720
2017-07-19T07:06:58.768Z,11732
2017-07-19T07:07:39.669Z,11756
2017-07-19T07:08:20.575Z,11776
2017-07-19T07:09:01.529Z,11820
2017-07-19T07:10:40.166Z,11944
2017-07-19T07:11:21.070Z,12028
2017-07-19T07:12:01.994Z,12152
2017-07-19T07:12:42.908Z,11936
2017-07-19T07:13:23.819Z,11848
2017-07-19T07:14:04.733Z,11912
2017-07-19T07:14:45.643Z,11936
2017-07-19T07:15:26.551Z,10960
2017-07-19T07:16:07.456Z,10548
2017-07-19T07:16:48.367Z,11060
2017-07-19T07:17:29.273Z,12684
2017-07-19T07:18:10.168Z,13056
2017-07-19T07:18:51.070Z,13204
2017-07-19T07:19:31.973Z,13512
2017-07-19T07:20:12.883Z,15392
2017-07-19T07:20:53.785Z,23840
2017-07-19T07:21:34.686Z,38528
2017-07-19T07:22:15.592Z,54368
2017-07-19T07:22:56.494Z,65824
2017-07-19T07:23:37.405Z,68640
2017-07-19T07:24:18.342Z,68544
2017-07-19T07:24:59.251Z,70144
2017-07-19T07:25:40.159Z,65632
2017-07-19T07:26:21.065Z,65824
2017-07-19T07:27:01.964Z,62176
2017-07-19T07:27:42.864Z,62816
2017-07-19T07:28:23.771Z,61152
2017-07-19T07:29:04.689Z,58368
2017-07-19T07:29:45.566Z,56992
2017-07-19T07:30:26.474Z,52192
2017-07-19T07:31:07.376Z,42496
2017-07-19T07:31:48.277Z,35200
2017-07-19T07:32:29.196Z,40576
2017-07-19T07:33:10.091Z,52448
2017-07-19T07:33:51.000Z,62528
2017-07-19T07:34:31.906Z,64896
2017-07-19T07:35:12.812Z,66784
2017-07-19T07:35:53.717Z,64512
2017-07-19T07:36:34.631Z,65536
2017-07-19T07:37:15.530Z,66080
2017-07-19T07:37:56.452Z,65536
2017-07-19T07:38:37.349Z,65248
2017-07-19T07:39:18.261Z,64768
2017-07-19T07:39:59.160Z,64576
2017-07-19T07:40:40.061Z,63968
2017-07-19T07:41:20.969Z,62624
2017-07-19T07:42:01.880Z,62016
2017-07-19T07:42:42.786Z,62144
2017-07-19T07:43:23.698Z,63520
2017-07-19T07:44:04.598Z,63680
2017-07-19T07:44:45.501Z,64128
2017-07-19T07:45:26.410Z,63520
2017-07-19T07:46:07.359Z,62752
2017-07-19T07:46:48.262Z,60928
2017-07-19T07:47:29.177Z,61120
2017-07-19T07:48:10.072Z,60864
2017-07-19T07:48:50.990Z,61408
2017-07-19T07:49:31.891Z,60160
2017-07-19T07:50:12.812Z,58400
2017-07-19T07:50:53.712Z,57440
2017-07-19T07:51:34.630Z,56576
2017-07-19T07:52:15.571Z,57952
2017-07-19T07:52:56.444Z,59712
2017-07-19T07:53:37.353Z,62080
2017-07-19T07:54:18.262Z,63104
2017-07-19T07:54:59.171Z,63680
2017-07-19T07:55:40.091Z,64928
2017-07-19T07:56:20.994Z,63136
2017-07-19T07:57:01.902Z,50720
2017-07-19T07:57:42.836Z,32768
2017-07-19T07:58:23.743Z,17440
2017-07-19T07:59:04.660Z,13584
2017-07-19T07:59:45.572Z,13152
2017-07-19T08:00:26.487Z,13044
2017-07-19T08:01:07.397Z,12988
2017-07-19T08:01:48.311Z,12920
2017-07-19T08:02:29.220Z,12876
2017-07-19T08:03:10.131Z,12868
2017-07-19T08:03:51.036Z,12832
2017-07-19T08:04:31.952Z,12820
2017-07-19T08:05:12.855Z,12824
2017-07-19T08:05:53.769Z,12824
2017-07-19T08:06:34.680Z,12828
2017-07-19T08:07:15.587Z,12812
2017-07-19T08:07:56.496Z,12844
2017-07-19T08:08:37.407Z,12864
2017-07-19T08:09:18.309Z,12888
2017-07-19T08:09:59.228Z,12904
2017-07-19T08:10:40.141Z,12920
2017-07-19T08:11:21.059Z,12948
2017-07-19T08:12:01.976Z,12984
2017-07-19T08:12:42.885Z,13020
2017-07-19T08:13:23.802Z,13076
2017-07-19T08:14:04.713Z,13136
2017-07-19T08:14:45.652Z,13316
2017-07-19T08:15:26.568Z,13780
2017-07-19T08:17:20.261Z,60736
2017-07-19T08:18:01.168Z,83840
2017-07-19T08:18:42.076Z,83648
2017-07-19T08:19:22.988Z,74912
2017-07-19T08:20:03.923Z,72224
2017-07-19T08:20:44.847Z,71584
2017-07-19T08:21:25.767Z,78592
2017-07-19T08:22:06.680Z,76000
2017-07-19T08:22:47.585Z,73312
2017-07-19T08:23:28.500Z,70880
2017-07-19T08:24:09.550Z,70496
2017-07-19T08:24:50.461Z,72224
2017-07-19T08:25:31.389Z,71040
2017-07-19T08:26:12.293Z,73248
2017-07-19T08:26:53.209Z,76000
2017-07-19T08:27:34.116Z,81568
2017-07-19T08:28:15.037Z,83104
2017-07-19T08:28:55.948Z,77760
2017-07-19T08:29:36.859Z,70720
2017-07-19T08:30:17.768Z,64768
2017-07-19T08:30:58.688Z,59840
2017-07-19T08:31:39.829Z,62784
2017-07-19T08:32:20.763Z,66176
2017-07-19T08:33:01.678Z,69280
2017-07-19T08:33:42.590Z,74368
2017-07-19T08:34:23.499Z,73120
2017-07-19T08:35:04.415Z,74432
2017-07-19T08:35:45.327Z,75456
2017-07-19T08:36:26.248Z,77792
2017-07-19T08:37:07.163Z,80160
2017-07-19T08:37:48.077Z,82688
2017-07-19T08:38:28.996Z,84864
2017-07-19T08:39:09.909Z,262140
2017-07-19T08:39:50.835Z,262140
2017-07-19T08:40:31.743Z,262140
2017-07-19T08:41:12.677Z,262140
2017-07-19T08:41:53.589Z,262140
2017-07-19T08:42:34.510Z,262140
2017-07-19T08:43:15.437Z,262140
2017-07-19T08:43:56.350Z,262140
2017-07-19T08:44:37.272Z,83840
2017-07-19T08:45:18.199Z,73920
2017-07-19T08:45:59.094Z,67040
2017-07-19T08:46:40.003Z,64160
2017-07-19T08:47:20.913Z,66464
2017-07-19T08:48:01.830Z,73792
2017-07-19T08:48:42.729Z,79008
2017-07-19T08:49:23.659Z,80640
2017-07-19T08:50:04.572Z,82368
2017-07-19T08:50:45.493Z,84192
2017-07-19T08:51:26.406Z,85888
2017-07-19T08:52:07.318Z,87264
2017-07-19T08:52:48.270Z,88608
2017-07-19T08:53:29.177Z,88064
2017-07-19T08:54:10.098Z,88928
2017-07-19T08:54:51.006Z,89024
2017-07-19T08:55:31.926Z,89248
2017-07-19T08:56:12.849Z,88384
2017-07-19T08:56:53.755Z,88608
2017-07-19T08:57:34.676Z,87232
2017-07-19T08:58:15.592Z,85248
2017-07-19T08:58:56.509Z,83488
2017-07-19T08:59:37.414Z,83456
2017-07-19T09:00:18.332Z,83232
2017-07-19T09:00:59.242Z,83424
2017-07-19T09:01:40.155Z,81824
2017-07-19T09:02:21.090Z,77568
2017-07-19T09:03:02.009Z,73184
2017-07-19T09:03:42.919Z,70656
2017-07-19T09:04:23.835Z,54432
2017-07-19T09:05:04.745Z,53248
2017-07-19T09:05:45.662Z,71680
2017-07-19T09:06:26.575Z,87328
2017-07-19T09:07:07.495Z,88256
2017-07-19T09:07:48.414Z,86976
2017-07-19T09:08:29.331Z,86432
2017-07-19T09:09:10.244Z,85120
2017-07-19T09:09:51.171Z,84544
2017-07-19T09:10:32.078Z,85248
2017-07-19T09:11:13.008Z,84960
2017-07-19T09:11:53.935Z,84704
2017-07-19T09:12:34.848Z,84576
2017-07-19T09:13:15.761Z,83712
2017-07-19T09:13:56.688Z,84864
2017-07-19T09:14:37.594Z,85888
2017-07-19T09:15:18.518Z,85856
2017-07-19T09:15:59.422Z,85952
2017-07-19T09:16:40.343Z,85120
2017-07-19T09:17:21.268Z,85088
2017-07-19T09:18:02.191Z,86496
2017-07-19T09:18:43.098Z,86240
2017-07-19T09:19:24.025Z,87264
2017-07-19T09:20:04.939Z,87872
2017-07-19T09:20:45.854Z,88800